createdAt,value
2018-12-12T00:01:49.375Z,94258.67
2018-12-12T00:04:17.550Z,94259.30
2018-12-12T00:06:45.410Z,94252.89
2018-12-12T00:09:13.086Z,94253.97
2018-12-12T00:11:40.927Z,94258.73
2018-12-12T00:14:08.887Z,94255.03
2018-12-12T00:16:36.544Z,94261.01
2018-12-12T00:19:04.267Z,94257.98
2018-12-12T00:21:31.872Z,94261.45
2018-12-12T00:23:59.591Z,94254.08
2018-12-12T00:26:28.176Z,94256.05
2018-12-12T00:28:55.953Z,94259.91
2018-12-12T00:31:23.731Z,94253.18
2018-12-12T00:33:51.421Z,94247.42
2018-12-12T00:36:19.066Z,94258.55
2018-12-12T00:38:46.648Z,94251.51
2018-12-12T00:41:14.300Z,94258.29
2018-12-12T00:43:42.191Z,94259.69
2018-12-12T00:46:09.858Z,94262.44
2018-12-12T00:48:37.803Z,94257.66
2018-12-12T00:51:05.793Z,94254.95
2018-12-12T00:53:33.534Z,94261.17
2018-12-12T00:56:01.438Z,94249.97
2018-12-12T00:58:29.161Z,94255.43
2018-12-12T01:00:58.100Z,94256.52
2018-12-12T01:03:25.848Z,94260.49
2018-12-12T01:05:53.742Z,94260.45
2018-12-12T01:08:21.876Z,94260.80
2018-12-12T01:10:51.997Z,94267.00
2018-12-12T01:13:19.593Z,94268.31
2018-12-12T01:15:47.224Z,94273.56
2018-12-12T01:18:14.889Z,94275.77
2018-12-12T01:20:43.722Z,94279.16
2018-12-12T01:23:11.404Z,94277.45
2018-12-12T01:25:41.894Z,94281.53
2018-12-12T01:28:09.593Z,94280.55
2018-12-12T01:30:37.276Z,94280.38
2018-12-12T01:33:05.228Z,94279.20
2018-12-12T01:35:33.168Z,94287.21
2018-12-12T01:38:00.938Z,94281.75
2018-12-12T01:40:28.656Z,94274.34
2018-12-12T01:42:57.216Z,94288.23
2018-12-12T01:45:26.921Z,94281.75
2018-12-12T01:47:54.585Z,94275.53
2018-12-12T01:50:23.375Z,94280.75
2018-12-12T01:52:51.348Z,94276.75
2018-12-12T01:55:19.963Z,94278.35
2018-12-12T01:57:48.000Z,94268.00
2018-12-12T02:00:15.764Z,94268.69
2018-12-12T02:02:43.705Z,94267.81
2018-12-12T02:05:11.685Z,94266.86
2018-12-12T02:07:39.474Z,94274.20
2018-12-12T02:10:07.937Z,94272.06
2018-12-12T02:12:35.753Z,94274.89
2018-12-12T02:15:04.479Z,94273.79
2018-12-12T02:17:32.333Z,94276.67
2018-12-12T02:20:00.117Z,94269.19
2018-12-12T02:22:28.043Z,94276.49
2018-12-12T02:24:55.851Z,94268.38
2018-12-12T02:27:23.423Z,94265.33
2018-12-12T02:29:51.477Z,94270.99
2018-12-12T02:32:20.081Z,94262.58
2018-12-12T02:34:48.045Z,94261.87
2018-12-12T02:37:16.000Z,94264.88
2018-12-12T02:39:43.838Z,94257.05
2018-12-12T02:42:11.569Z,94246.45
2018-12-12T02:44:40.111Z,94253.09
2018-12-12T02:47:07.937Z,94254.84
2018-12-12T02:49:35.585Z,94250.41
2018-12-12T02:52:03.190Z,94249.61
2018-12-12T02:54:30.859Z,94251.03
2018-12-12T02:56:58.609Z,94256.84
2018-12-12T02:59:26.212Z,94259.59
2018-12-12T03:01:54.041Z,94260.45
2018-12-12T03:04:21.746Z,94250.80
2018-12-12T03:06:49.320Z,94253.77
2018-12-12T03:09:16.950Z,94259.47
2018-12-12T03:11:44.644Z,94244.66
2018-12-12T03:14:12.221Z,94247.03
2018-12-12T03:16:39.828Z,94261.73
2018-12-12T03:19:07.470Z,94249.08
2018-12-12T03:21:35.051Z,94257.52
2018-12-12T03:24:02.918Z,94261.64
2018-12-12T03:26:30.760Z,94258.17
2018-12-12T03:28:58.679Z,94258.65
2018-12-12T03:31:26.989Z,94251.77
2018-12-12T03:33:54.864Z,94256.05
2018-12-12T03:36:22.897Z,94254.08
2018-12-12T03:38:50.601Z,94263.38
2018-12-12T03:41:18.179Z,94259.57
2018-12-12T03:43:45.808Z,94253.02
2018-12-12T03:46:13.477Z,94248.23
2018-12-12T03:48:41.056Z,94252.72
2018-12-12T03:51:08.694Z,94256.56
2018-12-12T03:53:36.314Z,94257.82
2018-12-12T03:56:03.981Z,94256.87
2018-12-12T03:58:31.606Z,94256.92
2018-12-12T04:00:59.241Z,94248.48
2018-12-12T04:03:26.826Z,94254.84
2018-12-12T04:05:54.449Z,94250.03
2018-12-12T04:08:22.447Z,94251.61
2018-12-12T04:10:50.613Z,94250.31
2018-12-12T04:13:18.442Z,94243.05
2018-12-12T04:15:46.301Z,94252.44
2018-12-12T04:18:14.058Z,94257.81
2018-12-12T04:20:41.903Z,94244.95
2018-12-12T04:23:09.550Z,94261.97
2018-12-12T04:25:37.161Z,94251.21
2018-12-12T04:28:04.995Z,94256.55
2018-12-12T04:30:32.598Z,94254.94
2018-12-12T04:33:00.466Z,94249.45
2018-12-12T04:35:28.376Z,94250.23
2018-12-12T04:37:56.032Z,94246.73
2018-12-12T04:40:24.069Z,94256.74
2018-12-12T04:42:51.769Z,94257.57
2018-12-12T04:45:19.551Z,94253.41
2018-12-12T04:47:47.258Z,94255.17
2018-12-12T04:50:14.860Z,94259.80
2018-12-12T04:52:42.423Z,94266.63
2018-12-12T04:55:10.492Z,94263.10
2018-12-12T04:57:38.558Z,94266.10
2018-12-12T05:00:06.408Z,94271.72
2018-12-12T05:02:34.498Z,94274.80
2018-12-12T05:05:02.494Z,94282.81
2018-12-12T05:07:30.106Z,94276.75
2018-12-12T05:09:57.737Z,94277.05
2018-12-12T05:12:25.405Z,94282.08
2018-12-12T05:14:53.080Z,94278.16
2018-12-12T05:17:20.730Z,94274.56
2018-12-12T05:19:48.421Z,94281.16
2018-12-12T05:22:16.015Z,94276.05
2018-12-12T05:24:43.657Z,94278.37
2018-12-12T05:27:11.273Z,94274.41
2018-12-12T05:29:38.856Z,94278.72
2018-12-12T05:32:06.497Z,94284.30
2018-12-12T05:34:34.085Z,94287.59
2018-12-12T05:37:01.687Z,94288.07
2018-12-12T05:39:29.415Z,94290.33
2018-12-12T05:41:56.983Z,94290.56
2018-12-12T05:44:24.935Z,94297.66
2018-12-12T05:46:52.629Z,94290.98
2018-12-12T05:49:21.109Z,94288.72
2018-12-12T05:51:48.865Z,94290.59
2018-12-12T05:54:16.499Z,94291.94
2018-12-12T05:56:44.322Z,94304.34
2018-12-12T05:59:12.889Z,94301.81
2018-12-12T06:01:40.535Z,94299.31
2018-12-12T06:04:08.412Z,94303.94
2018-12-12T06:06:36.047Z,94298.19
2018-12-12T06:09:06.447Z,94294.17
2018-12-12T06:11:34.590Z,94302.19
2018-12-12T06:14:02.492Z,94305.40
2018-12-12T06:16:30.411Z,94297.98
2018-12-12T06:18:58.367Z,94310.50
2018-12-12T06:21:26.144Z,94312.80
2018-12-12T06:23:54.617Z,94308.03
2018-12-12T06:26:22.574Z,94305.25
2018-12-12T06:28:50.373Z,94307.95
2018-12-12T06:31:18.354Z,94313.53
2018-12-12T06:33:46.253Z,94321.00
2018-12-12T06:36:14.069Z,94312.26
2018-12-12T06:38:41.844Z,94316.66
2018-12-12T06:41:09.598Z,94316.84
2018-12-12T06:43:37.593Z,94318.53
2018-12-12T06:46:05.409Z,94315.31
2018-12-12T06:48:34.758Z,94316.44
2018-12-12T06:51:02.808Z,94316.11
2018-12-12T06:53:30.522Z,94320.74
2018-12-12T06:55:58.231Z,94318.84
2018-12-12T06:58:25.889Z,94329.35
2018-12-12T07:00:53.735Z,94324.72
2018-12-12T07:03:22.447Z,94324.28
2018-12-12T07:05:51.375Z,94321.19
2018-12-12T07:08:19.310Z,94320.23
2018-12-12T07:10:46.889Z,94323.81
2018-12-12T07:13:15.421Z,94326.30
2018-12-12T07:15:43.320Z,94332.59
2018-12-12T07:18:11.190Z,94331.33
2018-12-12T07:20:38.983Z,94333.84
2018-12-12T07:23:06.885Z,94327.42
2018-12-12T07:25:34.502Z,94340.04
2018-12-12T07:28:02.181Z,94338.06
2018-12-12T07:30:30.126Z,94338.94
2018-12-12T07:32:57.770Z,94338.05
2018-12-12T07:35:25.390Z,94342.10
2018-12-12T07:37:53.095Z,94342.88
2018-12-12T07:40:20.896Z,94331.58
2018-12-12T07:42:48.534Z,94330.99
2018-12-12T07:45:16.705Z,94330.66
2018-12-12T07:47:44.530Z,94324.23
2018-12-12T07:50:12.437Z,94323.30
2018-12-12T07:52:40.098Z,94334.62
2018-12-12T07:55:07.835Z,94335.15
2018-12-12T07:57:35.450Z,94331.17
2018-12-12T08:00:04.383Z,94336.75
2018-12-12T08:02:32.048Z,94334.49
2018-12-12T08:04:59.853Z,94332.56
2018-12-12T08:07:27.598Z,94344.41
2018-12-12T08:09:55.690Z,94345.58
2018-12-12T08:12:23.556Z,94345.44
2018-12-12T08:14:51.418Z,94350.73
2018-12-12T08:17:19.335Z,94351.53
2018-12-12T08:19:47.356Z,94359.39
2018-12-12T08:22:15.008Z,94353.70
2018-12-12T08:24:43.296Z,94351.55
2018-12-12T08:27:10.909Z,94359.67
2018-12-12T08:29:38.517Z,94365.23
2018-12-12T08:32:06.161Z,94361.08
2018-12-12T08:34:33.808Z,94362.58
2018-12-12T08:37:01.408Z,94364.80
2018-12-12T08:39:29.123Z,94367.83
2018-12-12T08:41:56.706Z,94367.98
2018-12-12T08:44:24.294Z,94370.09
2018-12-12T08:46:51.902Z,94365.89
2018-12-12T08:49:19.567Z,94366.30
2018-12-12T08:51:47.149Z,94374.03
2018-12-12T08:54:14.799Z,94378.01
2018-12-12T08:56:42.579Z,94376.77
2018-12-12T08:59:10.212Z,94379.10
2018-12-12T09:01:37.871Z,94379.69
2018-12-12T09:04:05.563Z,94382.31
2018-12-12T09:06:33.438Z,94375.02
2018-12-12T09:09:01.008Z,94383.30
2018-12-12T09:11:28.983Z,94380.55
2018-12-12T09:13:56.652Z,94379.35
2018-12-12T09:16:24.519Z,94380.19
2018-12-12T09:18:52.174Z,94381.03
2018-12-12T09:21:20.253Z,94382.28
2018-12-12T09:23:48.170Z,94385.78
2018-12-12T09:26:16.592Z,94387.30
2018-12-12T09:28:44.766Z,94380.38
2018-12-12T09:31:12.421Z,94370.97
2018-12-12T09:33:40.103Z,94381.98
2018-12-12T09:36:07.757Z,94378.91
2018-12-12T09:38:35.338Z,94381.98
2018-12-12T09:41:02.999Z,94381.86
2018-12-12T09:43:30.951Z,94376.45
2018-12-12T09:45:58.539Z,94373.18
2018-12-12T09:48:26.274Z,94376.56
2018-12-12T09:50:53.914Z,94373.84
2018-12-12T09:53:21.680Z,94386.06
2018-12-12T09:55:49.380Z,94382.30
2018-12-12T09:58:17.135Z,94381.63
2018-12-12T10:00:44.729Z,94377.16
2018-12-12T10:03:12.365Z,94380.09
2018-12-12T10:05:40.052Z,94384.73
2018-12-12T10:08:07.841Z,94379.04
2018-12-12T10:10:35.520Z,94372.61
2018-12-12T10:13:04.283Z,94378.87
2018-12-12T10:15:32.023Z,94369.79
2018-12-12T10:17:59.685Z,94374.13
2018-12-12T10:20:27.275Z,94375.11
2018-12-12T10:22:55.044Z,94376.27
2018-12-12T10:25:22.660Z,94374.81
2018-12-12T10:27:50.377Z,94373.82
2018-12-12T10:30:17.947Z,94360.58
2018-12-12T10:32:45.631Z,94368.82
2018-12-12T10:35:14.534Z,94373.75
2018-12-12T10:37:42.554Z,94369.62
2018-12-12T10:40:10.179Z,94375.03
2018-12-12T10:42:37.825Z,94376.51
2018-12-12T10:45:06.135Z,94374.20
2018-12-12T10:47:33.785Z,94370.61
2018-12-12T10:50:01.415Z,94370.79
2018-12-12T10:52:29.108Z,94374.47
2018-12-12T10:54:57.150Z,94368.29
2018-12-12T10:57:25.237Z,94365.77
2018-12-12T10:59:53.104Z,94369.11
2018-12-12T11:02:31.367Z,94373.83
2018-12-12T11:04:59.003Z,94384.20
2018-12-12T11:07:26.656Z,94382.25
2018-12-12T11:09:54.288Z,94377.68
2018-12-12T11:12:21.947Z,94373.08
2018-12-12T11:14:49.590Z,94371.69
2018-12-12T11:17:17.238Z,94375.48
2018-12-12T11:19:44.870Z,94380.69
2018-12-12T11:22:12.443Z,94367.44
2018-12-12T11:24:55.810Z,94371.22
2018-12-12T11:27:23.503Z,94365.67
2018-12-12T11:29:51.360Z,94360.19
2018-12-12T11:32:23.882Z,94364.79
2018-12-12T11:34:51.597Z,94368.77
2018-12-12T11:37:19.167Z,94369.26
2018-12-12T11:39:49.471Z,94366.78
2018-12-12T11:42:17.785Z,94359.13
2018-12-12T11:44:45.463Z,94360.89
2018-12-12T11:47:13.058Z,94358.55
2018-12-12T11:49:40.772Z,94360.45
2018-12-12T11:52:08.348Z,94355.95
2018-12-12T11:54:36.073Z,94356.77
2018-12-12T11:57:05.206Z,94353.82
2018-12-12T11:59:32.876Z,94359.30
2018-12-12T12:02:00.534Z,94364.17
2018-12-12T12:04:28.360Z,94353.11
2018-12-12T12:06:56.094Z,94355.72
2018-12-12T12:09:23.738Z,94358.45
2018-12-12T12:11:51.310Z,94352.08
2018-12-12T12:14:18.937Z,94353.83
2018-12-12T12:16:46.566Z,94356.23
2018-12-12T12:19:14.609Z,94353.69
2018-12-12T12:21:42.267Z,94356.09
2018-12-12T12:24:09.836Z,94349.19
2018-12-12T12:26:37.956Z,94356.42
2018-12-12T12:29:05.979Z,94356.73
2018-12-12T12:31:33.768Z,94353.85
2018-12-12T12:34:03.298Z,94354.98
2018-12-12T12:36:31.366Z,94354.00
2018-12-12T12:38:59.023Z,94351.27
2018-12-12T12:41:26.754Z,94348.23
2018-12-12T12:43:55.051Z,94346.95
2018-12-12T12:46:22.715Z,94345.20
2018-12-12T12:48:50.288Z,94351.14
2018-12-12T12:51:17.959Z,94355.61
2018-12-12T12:53:45.546Z,94360.89
2018-12-12T12:56:13.188Z,94361.52
2018-12-12T12:58:40.873Z,94354.97
2018-12-12T13:01:08.460Z,94350.33
2018-12-12T13:03:36.098Z,94344.57
2018-12-12T13:06:03.755Z,94352.24
2018-12-12T13:08:31.351Z,94343.26
2018-12-12T13:10:59.021Z,94350.64
2018-12-12T13:13:26.887Z,94345.34
2018-12-12T13:15:55.093Z,94344.55
2018-12-12T13:18:22.841Z,94349.33
2018-12-12T13:20:50.548Z,94346.45
2018-12-12T13:23:18.112Z,94339.74
2018-12-12T13:25:45.771Z,94343.91
2018-12-12T13:28:13.423Z,94348.09
2018-12-12T13:30:41.088Z,94347.45
2018-12-12T13:33:08.954Z,94341.67
2018-12-12T13:35:36.567Z,94346.01
2018-12-12T13:38:04.251Z,94347.45
2018-12-12T13:40:32.805Z,94347.91
2018-12-12T13:43:00.487Z,94343.58
2018-12-12T13:45:28.360Z,94344.55
2018-12-12T13:47:56.120Z,94350.30
2018-12-12T13:50:23.834Z,94340.86
2018-12-12T13:52:51.575Z,94344.08
2018-12-12T13:55:19.209Z,94341.69
2018-12-12T13:57:46.961Z,94347.45
2018-12-12T14:00:14.673Z,94344.40
2018-12-12T14:02:42.452Z,94344.38
2018-12-12T14:05:10.161Z,94342.32
2018-12-12T14:07:37.867Z,94342.64
2018-12-12T14:10:06.752Z,94342.48
2018-12-12T14:12:34.614Z,94340.24
2018-12-12T14:15:02.261Z,94334.17
2018-12-12T14:17:29.918Z,94333.03
2018-12-12T14:19:57.574Z,94337.84
2018-12-12T14:22:25.227Z,94333.03
2018-12-12T14:24:52.907Z,94339.62
2018-12-12T14:27:20.667Z,94333.53
2018-12-12T14:29:48.279Z,94334.97
2018-12-12T14:32:15.974Z,94335.60
2018-12-12T14:34:43.597Z,94339.10
2018-12-12T14:37:11.945Z,94336.86
2018-12-12T14:39:39.605Z,94334.60
2018-12-12T14:42:07.196Z,94336.69
2018-12-12T14:44:34.865Z,94336.52
2018-12-12T14:47:02.580Z,94331.84
2018-12-12T14:49:30.154Z,94332.17
2018-12-12T14:51:57.985Z,94327.84
2018-12-12T14:54:25.611Z,94328.28
2018-12-12T14:56:53.215Z,94327.45
2018-12-12T14:59:20.859Z,94333.48
2018-12-12T15:01:48.436Z,94336.95
2018-12-12T15:04:16.149Z,94326.66
2018-12-12T15:06:43.872Z,94325.95
2018-12-12T15:09:11.535Z,94318.80
2018-12-12T15:11:39.207Z,94320.34
2018-12-12T15:14:06.933Z,94321.92
2018-12-12T15:16:34.535Z,94323.29
2018-12-12T15:19:02.183Z,94324.89
2018-12-12T15:21:29.849Z,94327.09
2018-12-12T15:23:58.776Z,94333.66
2018-12-12T15:26:27.766Z,94328.84
2018-12-12T15:28:55.567Z,94334.30
2018-12-12T15:31:23.168Z,94326.13
2018-12-12T15:33:50.854Z,94322.67
2018-12-12T15:36:18.450Z,94324.23
2018-12-12T15:38:46.152Z,94323.84
2018-12-12T15:41:13.810Z,94322.24
2018-12-12T15:43:41.408Z,94323.63
2018-12-12T15:46:09.159Z,94320.94
2018-12-12T15:48:36.803Z,94321.07
2018-12-12T15:51:04.399Z,94317.57
2018-12-12T15:53:32.053Z,94312.25
2018-12-12T15:55:59.710Z,94312.11
2018-12-12T15:58:27.470Z,94310.69
2018-12-12T16:00:55.077Z,94314.77
2018-12-12T16:03:22.664Z,94316.08
2018-12-12T16:05:50.301Z,94320.34
2018-12-12T16:08:18.636Z,94320.45
2018-12-12T16:10:46.297Z,94326.08
2018-12-12T16:13:14.103Z,94323.19
2018-12-12T16:15:41.866Z,94327.59
2018-12-12T16:18:09.547Z,94326.61
2018-12-12T16:20:37.148Z,94332.22
2018-12-12T16:23:04.957Z,94332.98
2018-12-12T16:25:32.601Z,94330.17
2018-12-12T16:28:00.234Z,94324.86
2018-12-12T16:30:27.980Z,94321.22
2018-12-12T16:32:55.784Z,94321.98
2018-12-12T16:35:23.500Z,94331.94
2018-12-12T16:37:51.436Z,94329.86
2018-12-12T16:40:20.227Z,94329.78
2018-12-12T16:42:48.805Z,94326.00
2018-12-12T16:45:16.425Z,94329.79
2018-12-12T16:47:44.251Z,94331.16
2018-12-12T16:50:12.130Z,94333.86
2018-12-12T16:52:40.023Z,94334.12
2018-12-12T16:55:07.898Z,94331.38
2018-12-12T16:57:35.588Z,94330.63
2018-12-12T17:00:05.598Z,94333.03
2018-12-12T17:02:33.475Z,94334.83
2018-12-12T17:05:02.369Z,94340.93
2018-12-12T17:07:31.888Z,94332.55
2018-12-12T17:09:59.723Z,94337.58
2018-12-12T17:12:27.594Z,94339.09
2018-12-12T17:14:55.682Z,94336.78
2018-12-12T17:17:23.670Z,94339.25
2018-12-12T17:19:52.005Z,94332.14
2018-12-12T17:22:19.876Z,94335.55
2018-12-12T17:24:47.576Z,94336.48
2018-12-12T17:27:15.238Z,94332.16
2018-12-12T17:29:42.866Z,94340.80
2018-12-12T17:32:10.731Z,94336.30
2018-12-12T17:34:38.366Z,94339.43
2018-12-12T17:37:06.109Z,94344.47
2018-12-12T17:39:33.769Z,94345.33
2018-12-12T17:42:01.404Z,94344.27
2018-12-12T17:44:29.082Z,94345.17
2018-12-12T17:46:56.903Z,94349.91
2018-12-12T17:49:24.638Z,94348.39
2018-12-12T17:51:52.265Z,94349.19
2018-12-12T17:54:20.014Z,94346.78
2018-12-12T17:56:47.663Z,94341.23
2018-12-12T17:59:16.494Z,94344.16
2018-12-12T18:01:45.192Z,94344.07
2018-12-12T18:04:12.973Z,94353.37
2018-12-12T18:06:41.568Z,94348.52
2018-12-12T18:09:09.585Z,94347.06
2018-12-12T18:11:37.572Z,94352.08
2018-12-12T18:14:05.373Z,94348.20
2018-12-12T18:16:33.345Z,94351.32
2018-12-12T18:19:02.639Z,94347.91
2018-12-12T18:21:30.426Z,94344.77
2018-12-12T18:23:58.165Z,94349.38
2018-12-12T18:26:28.089Z,94349.26
2018-12-12T18:28:55.963Z,94344.27
2018-12-12T18:31:23.881Z,94350.83
2018-12-12T18:33:51.987Z,94340.79
2018-12-12T18:36:20.235Z,94342.33
2018-12-12T18:38:48.339Z,94337.05
2018-12-12T18:41:16.132Z,94338.61
2018-12-12T18:43:45.359Z,94345.51
2018-12-12T18:46:15.538Z,94355.68
2018-12-12T18:48:44.322Z,94358.22
2018-12-12T18:51:15.331Z,94361.66
2018-12-12T18:53:43.532Z,94324.58
2018-12-12T18:56:12.546Z,94354.16
2018-12-12T18:58:41.813Z,94356.84
2018-12-12T19:01:09.546Z,94347.11
2018-12-12T19:03:37.189Z,94353.28
2018-12-12T19:06:04.941Z,94357.31
2018-12-12T19:08:33.173Z,94355.83
2018-12-12T19:11:02.275Z,94361.05
2018-12-12T19:13:30.079Z,94358.71
2018-12-12T19:15:58.172Z,94363.33
2018-12-12T19:18:25.885Z,94364.25
2018-12-12T19:20:59.833Z,94362.17
2018-12-12T19:23:23.996Z,94361.77
2018-12-12T19:25:52.689Z,94363.45
2018-12-12T19:28:21.407Z,94355.88
2018-12-12T19:30:49.119Z,94355.59
2018-12-12T19:33:17.997Z,94354.31
2018-12-12T19:35:47.382Z,94362.62
2018-12-12T19:38:15.310Z,94358.06
2018-12-12T19:40:43.285Z,94350.94
2018-12-12T19:43:11.160Z,94358.80
2018-12-12T19:45:42.466Z,94351.57
2018-12-12T19:48:10.274Z,94350.50
2018-12-12T19:50:39.906Z,94347.16
2018-12-12T19:53:09.841Z,94348.29
2018-12-12T19:55:40.172Z,94344.06
2018-12-12T19:58:08.423Z,94341.39
2018-12-12T20:00:37.052Z,94338.25
2018-12-12T20:03:07.261Z,94346.61
2018-12-12T20:05:41.482Z,94346.08
2018-12-12T20:08:07.999Z,94336.44
2018-12-12T20:10:39.735Z,94336.10
2018-12-12T20:13:08.380Z,94333.83
2018-12-12T20:15:42.886Z,94328.74
2018-12-12T20:18:11.793Z,94326.12
2018-12-12T20:20:41.430Z,94329.96
2018-12-12T20:23:10.813Z,94319.11
2018-12-12T20:25:40.268Z,94316.23
2018-12-12T20:28:12.614Z,94318.78
2018-12-12T20:30:43.552Z,94318.17
2018-12-12T20:33:13.432Z,94316.90
2018-12-12T20:35:47.988Z,94320.72
2018-12-12T20:38:17.236Z,94312.02
2018-12-12T20:40:47.812Z,94311.22
2018-12-12T20:43:17.522Z,94307.31
2018-12-12T20:45:48.584Z,94303.77
2018-12-12T20:48:16.496Z,94305.44
2018-12-12T20:50:45.013Z,94301.69
2018-12-12T20:53:15.524Z,94298.69
2018-12-12T20:55:45.235Z,94294.38
2018-12-12T20:58:17.644Z,94295.38
2018-12-12T21:00:46.241Z,94291.98
2018-12-12T21:03:14.329Z,94296.58
2018-12-12T21:05:43.502Z,94297.45
2018-12-12T21:08:13.426Z,94304.38
2018-12-12T21:10:41.450Z,94301.16
2018-12-12T21:13:09.393Z,94295.74
2018-12-12T21:15:37.418Z,94297.41
2018-12-12T21:18:05.151Z,94301.97
2018-12-12T21:20:37.503Z,94308.86
2018-12-12T21:23:05.356Z,94306.24
2018-12-12T21:25:33.505Z,94310.41
2018-12-12T21:28:02.114Z,94312.02
2018-12-12T21:30:29.773Z,94314.34
2018-12-12T21:32:57.529Z,94317.57
2018-12-12T21:35:25.229Z,94314.16
2018-12-12T21:37:53.257Z,94310.88
2018-12-12T21:40:20.921Z,94311.67
2018-12-12T21:42:50.522Z,94311.02
2018-12-12T21:45:18.304Z,94309.55
2018-12-12T21:47:46.294Z,94306.45
2018-12-12T21:50:13.963Z,94310.06
2018-12-12T21:52:42.709Z,94303.20
2018-12-12T21:55:10.620Z,94302.67
2018-12-12T21:57:40.001Z,94297.38
2018-12-12T22:00:08.288Z,94311.94
2018-12-12T22:02:35.918Z,94306.40
2018-12-12T22:05:04.233Z,94312.48
2018-12-12T22:07:31.921Z,94314.50
2018-12-12T22:09:59.705Z,94312.88
2018-12-12T22:12:27.641Z,94308.45
2018-12-12T22:14:55.333Z,94307.72
2018-12-12T22:17:22.934Z,94305.72
2018-12-12T22:19:50.890Z,94312.52
2018-12-12T22:22:19.104Z,94306.98
2018-12-12T22:24:46.859Z,94307.72
2018-12-12T22:27:14.589Z,94316.16
2018-12-12T22:29:42.443Z,94308.31
2018-12-12T22:32:10.314Z,94310.69
2018-12-12T22:34:38.191Z,94307.17
2018-12-12T22:37:06.034Z,94303.83
2018-12-12T22:39:33.889Z,94298.30
2018-12-12T22:42:01.681Z,94302.04
2018-12-12T22:44:29.938Z,94307.99
2018-12-12T22:46:57.588Z,94311.73
2018-12-12T22:49:25.185Z,94307.28
2018-12-12T22:51:52.895Z,94309.22
2018-12-12T22:54:20.618Z,94306.06
2018-12-12T22:56:48.459Z,94296.08
2018-12-12T22:59:16.219Z,94297.27
2018-12-12T23:01:44.191Z,94289.96
2018-12-12T23:04:11.880Z,94287.00
2018-12-12T23:06:41.033Z,94285.73
2018-12-12T23:09:09.291Z,94286.83
2018-12-12T23:11:36.979Z,94281.73
2018-12-12T23:14:04.624Z,94282.73
2018-12-12T23:16:32.281Z,94280.38
2018-12-12T23:18:59.935Z,94280.70
2018-12-12T23:21:27.617Z,94275.62
2018-12-12T23:23:55.293Z,94279.25
2018-12-12T23:26:23.023Z,94279.30
2018-12-12T23:28:50.609Z,94271.72
2018-12-12T23:31:18.256Z,94277.26
2018-12-12T23:33:45.920Z,94275.48
2018-12-12T23:36:13.577Z,94268.38
2018-12-12T23:38:41.178Z,94267.92
2018-12-12T23:41:09.039Z,94271.08
2018-12-12T23:43:36.707Z,94266.38
2018-12-12T23:46:04.376Z,94272.16
2018-12-12T23:48:31.971Z,94259.88
2018-12-12T23:50:59.613Z,94263.04
2018-12-12T23:53:27.746Z,94255.54
2018-12-12T23:55:55.411Z,94256.06
2018-12-12T23:58:23.183Z,94253.33
